createdAt,value
2022-08-09T00:01:54.583Z,46.38
2022-08-09T00:04:34.598Z,47.41
2022-08-09T00:07:07.771Z,47.03
2022-08-09T00:09:39.574Z,46.86
2022-08-09T00:12:09.637Z,48.45
2022-08-09T00:14:55.936Z,48.39
2022-08-09T00:18:07.675Z,47.59
2022-08-09T00:20:14.357Z,46.59
2022-08-09T00:22:47.119Z,47.28
2022-08-09T00:25:23.106Z,48.13
2022-08-09T00:27:52.118Z,47.48
2022-08-09T00:30:25.933Z,47.09
2022-08-09T00:32:55.624Z,46.75
2022-08-09T00:35:24.091Z,46.59
2022-08-09T00:37:52.471Z,47.55
2022-08-09T00:40:22.068Z,47.36
2022-08-09T00:44:14.089Z,47.88
2022-08-09T00:45:53.813Z,47.56
2022-08-09T00:48:22.719Z,48.52
2022-08-09T00:50:52.224Z,49.82
2022-08-09T00:53:23.941Z,49.40
2022-08-09T00:56:05.769Z,47.83
2022-08-09T00:58:39.178Z,48.73
2022-08-09T01:01:20.793Z,48.13
2022-08-09T01:04:03.539Z,48.33
2022-08-09T01:06:54.648Z,49.10
2022-08-09T01:10:07.161Z,47.51
2022-08-09T01:12:45.717Z,48.16
2022-08-09T01:15:24.616Z,47.81
2022-08-09T01:18:01.914Z,48.14
2022-08-09T01:21:06.184Z,48.67
2022-08-09T01:24:25.787Z,47.03
2022-08-09T01:27:09.595Z,47.85
2022-08-09T01:29:56.588Z,48.26
2022-08-09T01:32:48.700Z,47.61
2022-08-09T01:35:38.319Z,48.21
2022-08-09T01:38:15.838Z,48.57
2022-08-09T01:41:09.483Z,48.35
2022-08-09T01:43:51.013Z,48.25
2022-08-09T01:46:31.725Z,48.40
2022-08-09T01:49:18.151Z,50.92
2022-08-09T01:51:55.665Z,50.63
2022-08-09T01:54:32.595Z,52.18
2022-08-09T01:57:14.978Z,49.73
2022-08-09T01:59:51.624Z,49.69
2022-08-09T02:02:31.138Z,49.01
2022-08-09T02:05:15.139Z,49.01
2022-08-09T02:08:38.628Z,48.62
2022-08-09T02:10:53.880Z,48.41
2022-08-09T02:13:40.221Z,49.58
2022-08-09T02:16:12.645Z,49.46
2022-08-09T02:18:48.003Z,49.43
2022-08-09T02:21:22.310Z,48.89
2022-08-09T02:23:57.753Z,48.55
2022-08-09T02:26:30.234Z,48.18
2022-08-09T02:29:06.772Z,46.55
2022-08-09T02:31:43.241Z,48.43
2022-08-09T02:34:40.193Z,48.55
2022-08-09T02:37:17.187Z,47.46
2022-08-09T02:39:55.059Z,48.18
2022-08-09T02:42:39.567Z,49.12
2022-08-09T02:45:15.303Z,50.69
2022-08-09T02:47:59.342Z,48.99
2022-08-09T02:50:45.466Z,48.93
2022-08-09T02:53:38.328Z,49.27
2022-08-09T02:56:14.001Z,50.81
2022-08-09T02:58:44.483Z,55.99
2022-08-09T03:01:29.069Z,56.77
2022-08-09T03:04:18.396Z,57.21
2022-08-09T03:06:49.164Z,57.75
2022-08-09T03:09:20.511Z,55.86
2022-08-09T03:12:05.993Z,55.09
2022-08-09T03:14:41.479Z,55.34
2022-08-09T03:17:16.369Z,55.90
2022-08-09T03:19:58.027Z,53.30
2022-08-09T03:22:42.259Z,52.04
2022-08-09T03:25:25.695Z,51.99
2022-08-09T03:28:11.322Z,52.14
2022-08-09T03:30:41.245Z,51.73
2022-08-09T03:33:19.121Z,50.92
2022-08-09T03:36:13.845Z,51.09
2022-08-09T03:38:43.564Z,52.76
2022-08-09T03:41:16.264Z,52.20
2022-08-09T03:44:03.341Z,52.34
2022-08-09T03:46:36.933Z,51.97
2022-08-09T03:49:08.090Z,53.26
2022-08-09T03:51:58.615Z,55.03
2022-08-09T03:54:39.707Z,55.38
2022-08-09T03:57:20.363Z,53.49
2022-08-09T03:59:56.039Z,52.74
2022-08-09T04:02:32.325Z,52.28
2022-08-09T04:05:06.393Z,51.61
2022-08-09T04:07:52.404Z,55.06
2022-08-09T04:10:29.162Z,55.33
2022-08-09T04:13:04.503Z,54.13
2022-08-09T04:16:17.623Z,52.63
2022-08-09T04:18:22.256Z,51.96
2022-08-09T04:20:53.327Z,52.10
2022-08-09T04:23:23.440Z,50.62
2022-08-09T04:25:55.705Z,50.77
2022-08-09T04:28:33.429Z,50.33
2022-08-09T04:31:09.128Z,52.13
2022-08-09T04:33:51.847Z,51.08
2022-08-09T04:36:25.736Z,50.67
2022-08-09T04:38:56.100Z,53.41
2022-08-09T04:41:33.283Z,54.56
2022-08-09T04:44:06.289Z,55.39
2022-08-09T04:46:37.799Z,55.00
2022-08-09T04:49:40.309Z,56.33
2022-08-09T04:52:21.867Z,57.11
2022-08-09T04:55:04.306Z,57.36
2022-08-09T04:57:54.388Z,57.18
2022-08-09T05:00:24.756Z,56.21
2022-08-09T05:03:30.597Z,56.06
2022-08-09T05:05:51.967Z,55.76
2022-08-09T05:08:33.652Z,57.07
2022-08-09T05:11:02.957Z,57.13
2022-08-09T05:13:33.249Z,56.32
2022-08-09T05:16:02.419Z,55.38
2022-08-09T05:18:42.265Z,54.78
2022-08-09T05:21:22.861Z,53.69
2022-08-09T05:23:58.084Z,54.80
2022-08-09T05:26:37.523Z,53.32
2022-08-09T05:29:17.433Z,56.22
2022-08-09T05:31:56.665Z,55.24
2022-08-09T05:34:30.998Z,55.20
2022-08-09T05:37:11.258Z,56.24
2022-08-09T05:39:43.128Z,55.42
2022-08-09T05:42:17.758Z,55.32
2022-08-09T05:44:52.646Z,55.25
2022-08-09T05:47:24.716Z,55.85
2022-08-09T05:50:30.975Z,55.03
2022-08-09T05:52:44.606Z,56.29
2022-08-09T05:55:24.032Z,55.47
2022-08-09T05:57:57.441Z,55.76
2022-08-09T06:00:32.878Z,57.05
2022-08-09T06:03:04.090Z,55.72
2022-08-09T06:05:57.712Z,56.44
2022-08-09T06:08:27.659Z,53.91
2022-08-09T06:10:58.127Z,54.41
2022-08-09T06:13:28.617Z,53.08
2022-08-09T06:16:04.810Z,52.72
2022-08-09T06:18:34.915Z,53.51
2022-08-09T06:21:06.499Z,52.28
2022-08-09T06:23:57.357Z,53.01
2022-08-09T06:26:28.283Z,52.69
2022-08-09T06:29:00.087Z,51.33
2022-08-09T06:31:40.094Z,51.80
2022-08-09T06:34:26.188Z,53.13
2022-08-09T06:36:59.827Z,53.17
2022-08-09T06:39:48.164Z,56.08
2022-08-09T06:42:24.532Z,54.95
2022-08-09T06:45:00.302Z,55.00
2022-08-09T06:47:39.809Z,54.59
2022-08-09T06:50:14.330Z,52.98
2022-08-09T06:52:48.886Z,51.25
2022-08-09T06:55:23.022Z,51.16
2022-08-09T06:58:03.583Z,50.30
2022-08-09T07:00:51.956Z,50.68
2022-08-09T07:03:28.496Z,51.36
2022-08-09T07:06:04.532Z,50.71
2022-08-09T07:08:37.396Z,51.18
2022-08-09T07:11:12.447Z,52.70
2022-08-09T07:13:45.123Z,52.63
2022-08-09T07:16:39.059Z,52.30
2022-08-09T07:19:15.616Z,51.54
2022-08-09T07:21:56.020Z,52.33
2022-08-09T07:24:31.935Z,52.38
2022-08-09T07:27:33.572Z,52.49
2022-08-09T07:30:01.752Z,52.43
2022-08-09T07:32:32.402Z,50.54
2022-08-09T07:35:10.847Z,50.49
2022-08-09T07:37:45.709Z,50.72
2022-08-09T07:40:18.496Z,50.96
2022-08-09T07:42:59.963Z,49.88
2022-08-09T07:45:37.350Z,48.84
2022-08-09T07:48:25.836Z,50.80
2022-08-09T07:51:09.687Z,51.40
2022-08-09T07:54:05.263Z,51.26
2022-08-09T07:56:44.702Z,51.14
2022-08-09T07:59:25.189Z,50.08
2022-08-09T08:02:06.723Z,49.14
2022-08-09T08:04:37.856Z,49.15
2022-08-09T08:07:15.139Z,47.97
2022-08-09T08:10:08.277Z,46.68
2022-08-09T08:12:45.526Z,46.18
2022-08-09T08:15:18.622Z,45.92
2022-08-09T08:17:58.261Z,47.24
2022-08-09T08:20:32.466Z,47.37
2022-08-09T08:23:16.008Z,46.34
2022-08-09T08:25:53.972Z,46.35
2022-08-09T08:28:35.389Z,47.16
2022-08-09T08:31:14.222Z,45.45
2022-08-09T08:33:53.785Z,44.13
2022-08-09T08:36:29.690Z,41.71
2022-08-09T08:39:00.200Z,41.24
2022-08-09T08:41:51.112Z,40.46
2022-08-09T08:44:26.864Z,41.28
2022-08-09T08:47:00.090Z,39.50
2022-08-09T08:49:46.418Z,38.92
2022-08-09T08:52:52.853Z,37.89
2022-08-09T08:55:10.327Z,37.74
2022-08-09T08:57:38.674Z,37.03
2022-08-09T09:00:16.819Z,38.42
2022-08-09T09:02:52.819Z,36.45
2022-08-09T09:05:32.914Z,36.54
2022-08-09T09:08:29.694Z,35.86
2022-08-09T09:11:06.020Z,35.79
2022-08-09T09:13:55.383Z,34.36
2022-08-09T09:16:35.115Z,38.95
2022-08-09T09:19:37.256Z,37.19
2022-08-09T09:22:15.867Z,38.63
2022-08-09T09:26:00.266Z,38.85
2022-08-09T09:28:06.306Z,38.29
2022-08-09T09:30:52.259Z,38.19
2022-08-09T09:33:20.906Z,37.12
2022-08-09T09:36:01.585Z,37.97
2022-08-09T09:38:58.128Z,34.13
2022-08-09T09:41:32.710Z,35.41
2022-08-09T09:44:12.463Z,36.71
2022-08-09T09:46:45.833Z,37.53
2022-08-09T09:49:23.539Z,34.81
2022-08-09T09:52:16.640Z,33.82
2022-08-09T09:55:28.188Z,33.82
2022-08-09T09:58:15.535Z,33.42
2022-08-09T10:00:59.051Z,31.13
2022-08-09T10:03:38.223Z,30.78
2022-08-09T10:06:09.007Z,29.92
2022-08-09T10:08:54.950Z,29.66
2022-08-09T10:12:00.588Z,29.25
2022-08-09T10:14:33.058Z,32.59
2022-08-09T10:17:39.671Z,33.07
2022-08-09T10:20:05.322Z,32.48
2022-08-09T10:22:39.417Z,34.04
2022-08-09T10:25:11.827Z,30.58
2022-08-09T10:27:57.272Z,31.85
2022-08-09T10:32:07.132Z,30.78
2022-08-09T10:34:04.619Z,30.40
2022-08-09T10:36:09.688Z,32.86
2022-08-09T10:38:56.912Z,32.82
2022-08-09T10:41:28.440Z,30.17
2022-08-09T10:43:59.766Z,28.80
2022-08-09T10:48:12.291Z,29.16
2022-08-09T10:50:27.227Z,27.63
2022-08-09T10:53:19.360Z,29.41
2022-08-09T10:55:58.523Z,29.28
2022-08-09T10:58:37.466Z,34.27
2022-08-09T11:03:15.705Z,33.06
2022-08-09T11:04:30.777Z,33.85
2022-08-09T11:07:01.206Z,33.92
2022-08-09T11:09:50.869Z,34.13
2022-08-09T11:12:30.265Z,33.23
2022-08-09T11:15:24.342Z,31.14
2022-08-09T11:18:02.965Z,29.32
2022-08-09T11:20:47.568Z,32.01
2022-08-09T11:23:23.864Z,31.90
2022-08-09T11:25:54.860Z,31.11
2022-08-09T11:28:38.731Z,30.95
2022-08-09T11:31:49.906Z,28.67
2022-08-09T11:34:43.265Z,27.58
2022-08-09T11:37:31.320Z,26.42
2022-08-09T11:40:17.982Z,26.56
2022-08-09T11:42:48.751Z,27.98
2022-08-09T11:45:43.219Z,27.66
2022-08-09T11:48:18.853Z,29.30
2022-08-09T11:51:21.269Z,28.93
2022-08-09T11:54:01.767Z,28.77
2022-08-09T11:56:41.706Z,29.58
2022-08-09T11:59:30.539Z,30.22
2022-08-09T12:02:18.215Z,30.59
2022-08-09T12:04:54.606Z,29.84
2022-08-09T12:07:41.540Z,30.68
2022-08-09T12:10:31.995Z,28.62
2022-08-09T12:13:03.774Z,29.66
2022-08-09T12:15:52.577Z,27.89
2022-08-09T12:18:29.790Z,27.88
2022-08-09T12:21:03.282Z,29.56
2022-08-09T12:23:47.866Z,30.34
2022-08-09T12:26:26.006Z,30.78
2022-08-09T12:29:00.216Z,29.76
2022-08-09T12:31:58.953Z,31.80
2022-08-09T12:34:38.271Z,30.53
2022-08-09T12:37:23.672Z,29.40
2022-08-09T12:40:08.746Z,29.53
2022-08-09T12:42:43.191Z,29.07
2022-08-09T12:45:33.484Z,29.01
2022-08-09T12:48:01.307Z,29.67
2022-08-09T12:50:31.097Z,27.52
2022-08-09T12:53:09.401Z,27.19
2022-08-09T12:56:14.166Z,26.77
2022-08-09T12:58:42.671Z,29.69
2022-08-09T13:10:05.480Z,29.30
2022-08-09T13:12:39.833Z,30.03
2022-08-09T13:15:09.964Z,31.08
2022-08-09T13:25:55.862Z,30.04
2022-08-09T13:28:35.689Z,30.83
2022-08-09T13:32:15.469Z,30.57
2022-08-09T13:33:59.277Z,29.52
2022-08-09T13:36:40.991Z,29.75
2022-08-09T13:41:17.773Z,28.03
2022-08-09T13:42:12.204Z,27.81
2022-08-09T13:44:43.202Z,27.66
2022-08-09T13:47:26.486Z,29.32
2022-08-09T13:50:17.806Z,28.13
2022-08-09T13:52:48.090Z,27.58
2022-08-09T13:55:17.634Z,29.38
2022-08-09T13:57:53.115Z,28.58
2022-08-09T14:00:29.273Z,29.68
2022-08-09T14:03:04.264Z,28.30
2022-08-09T14:05:58.731Z,29.45
2022-08-09T14:08:35.404Z,28.54
2022-08-09T14:11:15.891Z,27.16
2022-08-09T14:14:22.003Z,27.88
2022-08-09T14:16:33.364Z,27.39
2022-08-09T14:19:03.313Z,25.38
2022-08-09T14:21:32.191Z,24.56
2022-08-09T14:24:09.953Z,25.79
2022-08-09T14:26:38.956Z,25.08
2022-08-09T14:30:34.011Z,27.15
2022-08-09T14:32:05.982Z,27.63
2022-08-09T14:34:41.073Z,26.88
2022-08-09T14:37:09.867Z,27.04
2022-08-09T14:39:46.915Z,27.57
2022-08-09T14:42:30.468Z,26.93
2022-08-09T14:46:39.618Z,26.28
2022-08-09T14:48:02.566Z,29.66
2022-08-09T14:50:35.036Z,30.16
2022-08-09T14:53:11.652Z,29.23
2022-08-09T14:55:48.036Z,30.81
2022-08-09T14:58:19.750Z,30.58
2022-08-09T15:00:51.279Z,30.85
2022-08-09T15:03:21.153Z,30.32
2022-08-09T15:05:55.528Z,30.23
2022-08-09T15:08:30.319Z,28.41
2022-08-09T15:11:01.012Z,27.82
2022-08-09T15:13:56.000Z,29.73
2022-08-09T15:16:19.656Z,29.96
2022-08-09T15:18:48.993Z,30.45
2022-08-09T15:21:56.461Z,29.99
2022-08-09T15:24:13.014Z,29.25
2022-08-09T15:26:48.423Z,31.31
2022-08-09T15:30:48.279Z,30.77
2022-08-09T15:32:29.680Z,30.18
2022-08-09T15:35:00.570Z,29.52
2022-08-09T15:37:37.765Z,29.31
2022-08-09T15:40:31.604Z,31.09
2022-08-09T15:43:01.786Z,31.70
2022-08-09T15:45:30.620Z,31.96
2022-08-09T15:48:28.928Z,32.70
2022-08-09T15:51:02.513Z,31.97
2022-08-09T15:54:04.485Z,32.33
2022-08-09T15:56:36.378Z,32.66
2022-08-09T15:59:04.584Z,32.69
2022-08-09T16:01:35.794Z,32.53
2022-08-09T16:04:04.369Z,32.28
2022-08-09T16:06:35.412Z,31.71
2022-08-09T16:09:06.522Z,32.19
2022-08-09T16:11:34.728Z,30.94
2022-08-09T16:14:08.088Z,32.06
2022-08-09T16:16:39.019Z,30.84
2022-08-09T16:19:16.049Z,30.96
2022-08-09T16:21:51.978Z,31.67
2022-08-09T16:24:33.251Z,30.39
2022-08-09T16:27:04.856Z,30.81
2022-08-09T16:29:37.133Z,30.95
2022-08-09T16:32:19.329Z,31.91
2022-08-09T16:34:57.993Z,32.98
2022-08-09T16:37:56.123Z,31.41
2022-08-09T16:40:29.963Z,32.03
2022-08-09T16:43:05.998Z,33.45
2022-08-09T16:45:34.313Z,33.12
2022-08-09T16:48:41.609Z,32.25
2022-08-09T16:50:59.045Z,32.19
2022-08-09T16:53:37.296Z,32.55
2022-08-09T16:56:09.968Z,32.26
2022-08-09T16:58:42.461Z,32.56
2022-08-09T17:01:23.547Z,32.92
2022-08-09T17:03:52.735Z,33.71
2022-08-09T17:06:28.866Z,33.49
2022-08-09T17:09:17.784Z,33.81
2022-08-09T17:11:52.807Z,33.06
2022-08-09T17:14:27.682Z,33.31
2022-08-09T17:17:02.678Z,33.72
2022-08-09T17:20:05.958Z,33.33
2022-08-09T17:22:31.076Z,33.58
2022-08-09T17:25:04.917Z,32.88
2022-08-09T17:27:49.091Z,34.11
2022-08-09T17:30:28.951Z,33.57
2022-08-09T17:33:05.758Z,34.96
2022-08-09T17:35:51.442Z,35.50
2022-08-09T17:38:32.654Z,34.44
2022-08-09T17:41:08.487Z,33.75
2022-08-09T17:43:37.323Z,34.79
2022-08-09T17:46:09.865Z,34.26
2022-08-09T17:48:51.973Z,34.61
2022-08-09T17:51:21.617Z,35.76
2022-08-09T17:53:55.334Z,35.68
2022-08-09T17:56:36.019Z,35.89
2022-08-09T17:59:11.873Z,35.22
2022-08-09T18:02:07.923Z,35.58
2022-08-09T18:07:48.759Z,34.93
2022-08-09T18:10:17.143Z,35.11
2022-08-09T18:13:40.676Z,36.12
2022-08-09T18:16:05.446Z,36.16
2022-08-09T18:18:25.752Z,36.54
2022-08-09T18:21:12.348Z,36.48
2022-08-09T18:24:12.060Z,36.11
2022-08-09T18:26:35.464Z,35.46
2022-08-09T18:30:39.648Z,37.39
2022-08-09T18:31:55.936Z,37.43
2022-08-09T18:34:24.842Z,36.72
2022-08-09T18:36:53.483Z,36.78
2022-08-09T18:39:24.275Z,37.52
2022-08-09T18:41:53.914Z,37.73
2022-08-09T18:44:27.351Z,37.53
2022-08-09T18:47:07.404Z,38.02
2022-08-09T18:49:46.344Z,37.98
2022-08-09T18:52:18.625Z,37.01
2022-08-09T18:54:53.731Z,37.48
2022-08-09T18:57:22.962Z,38.69
2022-08-09T18:59:57.506Z,38.16
2022-08-09T19:02:30.801Z,38.18
2022-08-09T19:05:19.514Z,38.09
2022-08-09T19:08:04.426Z,38.52
2022-08-09T19:10:39.558Z,38.11
2022-08-09T19:13:22.025Z,38.59
2022-08-09T19:15:53.101Z,39.07
2022-08-09T19:18:33.778Z,38.99
2022-08-09T19:21:09.468Z,39.05
2022-08-09T19:24:36.115Z,39.59
2022-08-09T19:26:34.852Z,39.09
2022-08-09T19:29:18.433Z,40.11
2022-08-09T19:31:51.556Z,39.20
2022-08-09T19:34:23.149Z,39.33
2022-08-09T19:36:55.877Z,38.78
2022-08-09T19:39:43.569Z,39.32
2022-08-09T19:42:19.166Z,40.04
2022-08-09T19:44:51.390Z,38.89
2022-08-09T19:47:23.393Z,40.23
2022-08-09T19:50:07.254Z,39.68
2022-08-09T19:52:49.787Z,39.29
2022-08-09T19:55:30.897Z,40.35
2022-08-09T19:58:16.507Z,39.87
2022-08-09T20:00:47.364Z,39.59
2022-08-09T20:04:17.100Z,39.48
2022-08-09T20:06:10.529Z,39.08
2022-08-09T20:08:56.584Z,39.63
2022-08-09T20:11:27.133Z,39.62
2022-08-09T20:14:15.348Z,40.27
2022-08-09T20:16:54.304Z,40.87
2022-08-09T20:19:48.800Z,40.52
2022-08-09T20:22:14.217Z,41.57
2022-08-09T20:24:53.429Z,41.77
2022-08-09T20:27:22.649Z,41.59
2022-08-09T20:29:51.052Z,42.53
2022-08-09T20:32:41.934Z,41.51
2022-08-09T20:35:09.337Z,42.93
2022-08-09T20:38:23.454Z,43.31
2022-08-09T20:40:28.179Z,42.86
2022-08-09T20:42:59.904Z,43.47
2022-08-09T20:46:00.356Z,43.57
2022-08-09T20:48:31.099Z,43.71
2022-08-09T20:51:01.282Z,43.65
2022-08-09T20:53:36.822Z,43.48
2022-08-09T20:56:20.529Z,43.53
2022-08-09T20:58:59.175Z,45.37
2022-08-09T21:01:34.197Z,44.34
2022-08-09T21:05:49.782Z,45.06
2022-08-09T21:07:11.982Z,43.81
2022-08-09T21:09:45.783Z,45.35
2022-08-09T21:15:23.470Z,45.41
2022-08-09T21:18:11.713Z,45.06
2022-08-09T21:20:43.962Z,45.09
2022-08-09T21:23:26.507Z,44.76
2022-08-09T21:26:11.483Z,45.55
2022-08-09T21:28:46.140Z,45.24
2022-08-09T21:31:24.631Z,47.66
2022-08-09T21:34:13.097Z,45.79
2022-08-09T21:36:45.876Z,46.02
2022-08-09T21:39:27.894Z,46.28
2022-08-09T21:42:11.164Z,47.42
2022-08-09T21:44:42.591Z,47.98
2022-08-09T21:47:17.461Z,48.02
2022-08-09T21:49:48.220Z,48.74
2022-08-09T21:52:20.697Z,48.78
2022-08-09T21:55:03.196Z,49.53
2022-08-09T21:57:38.997Z,47.59
2022-08-09T22:00:33.319Z,48.55
2022-08-09T22:03:07.384Z,48.62
2022-08-09T22:05:41.882Z,49.81
2022-08-09T22:08:16.507Z,48.72
2022-08-09T22:11:05.175Z,49.29
2022-08-09T22:13:37.194Z,50.85
2022-08-09T22:16:08.509Z,49.18
2022-08-09T22:18:43.951Z,49.16
2022-08-09T22:21:45.271Z,49.33
2022-08-09T22:24:21.032Z,50.19
2022-08-09T22:26:54.240Z,49.46
2022-08-09T22:29:28.825Z,50.40
2022-08-09T22:32:07.245Z,51.09
2022-08-09T22:35:02.167Z,50.23
2022-08-09T22:37:40.601Z,50.84
2022-08-09T22:40:18.311Z,51.81
2022-08-09T22:42:48.704Z,50.62
2022-08-09T22:48:14.136Z,51.23
2022-08-09T22:48:29.762Z,52.26
2022-08-09T22:50:53.808Z,53.22
2022-08-09T22:53:22.082Z,52.37
2022-08-09T22:56:30.564Z,52.04
2022-08-09T22:58:39.346Z,51.53
2022-08-09T23:01:08.520Z,52.12
2022-08-09T23:04:03.514Z,52.80
2022-08-09T23:06:29.923Z,52.25
2022-08-09T23:09:06.625Z,52.24
2022-08-09T23:11:35.107Z,52.15
2022-08-09T23:14:04.154Z,52.60
2022-08-09T23:16:38.573Z,53.10
2022-08-09T23:19:06.784Z,52.94
2022-08-09T23:21:36.046Z,53.29
2022-08-09T23:24:07.302Z,57.24
2022-08-09T23:26:37.344Z,59.18
2022-08-09T23:29:13.861Z,57.88
2022-08-09T23:31:42.768Z,56.17
2022-08-09T23:34:11.273Z,55.39
2022-08-09T23:36:39.626Z,55.44
2022-08-09T23:39:08.251Z,58.51
2022-08-09T23:41:36.767Z,58.98
2022-08-09T23:44:05.196Z,56.26
2022-08-09T23:46:34.388Z,55.02
2022-08-09T23:49:03.538Z,56.09
2022-08-09T23:51:31.777Z,55.90
2022-08-09T23:54:02.631Z,55.17
2022-08-09T23:56:53.692Z,55.79
2022-08-09T23:59:25.035Z,57.71
